sensor_id;sensor_type;location;lat;lon;timestamp;P1;durP1;ratioP1;P2;durP2;ratioP2
7306;SDS011;3694;48.732;9.248;2022-11-06T00:00:40;59.70;;;34.23;;
7306;SDS011;3694;48.732;9.248;2022-11-06T00:03:07;62.37;;;34.90;;
7306;SDS011;3694;48.732;9.248;2022-11-06T00:05:32;70.13;;;35.87;;
7306;SDS011;3694;48.732;9.248;2022-11-06T00:08:38;65.53;;;36.03;;
7306;SDS011;3694;48.732;9.248;2022-11-06T00:11:12;64.30;;;36.53;;
7306;SDS011;3694;48.732;9.248;2022-11-06T00:13:39;66.50;;;37.77;;
7306;SDS011;3694;48.732;9.248;2022-11-06T00:16:06;69.17;;;37.10;;
7306;SDS011;3694;48.732;9.248;2022-11-06T00:18:33;61.10;;;35.53;;
7306;SDS011;3694;48.732;9.248;2022-11-06T00:23:37;62.87;;;36.23;;
7306;SDS011;3694;48.732;9.248;2022-11-06T00:26:06;60.10;;;35.10;;
7306;SDS011;3694;48.732;9.248;2022-11-06T00:28:35;60.63;;;35.43;;
7306;SDS011;3694;48.732;9.248;2022-11-06T00:31:04;59.40;;;35.03;;
7306;SDS011;3694;48.732;9.248;2022-11-06T00:33:35;58.47;;;36.03;;
7306;SDS011;3694;48.732;9.248;2022-11-06T00:36:05;63.53;;;35.70;;
7306;SDS011;3694;48.732;9.248;2022-11-06T00:38:32;60.30;;;35.73;;
7306;SDS011;3694;48.732;9.248;2022-11-06T00:41:02;58.87;;;35.03;;
7306;SDS011;3694;48.732;9.248;2022-11-06T00:43:33;53.67;;;33.87;;
7306;SDS011;3694;48.732;9.248;2022-11-06T00:46:12;61.73;;;33.50;;
7306;SDS011;3694;48.732;9.248;2022-11-06T00:48:38;57.20;;;33.70;;
7306;SDS011;3694;48.732;9.248;2022-11-06T00:51:05;53.80;;;32.63;;
7306;SDS011;3694;48.732;9.248;2022-11-06T00:53:39;47.73;;;30.60;;
7306;SDS011;3694;48.732;9.248;2022-11-06T00:56:16;48.77;;;31.00;;
7306;SDS011;3694;48.732;9.248;2022-11-06T00:58:43;51.07;;;30.87;;
7306;SDS011;3694;48.732;9.248;2022-11-06T01:01:10;48.27;;;30.00;;
7306;SDS011;3694;48.732;9.248;2022-11-06T01:03:47;50.67;;;30.67;;
7306;SDS011;3694;48.732;9.248;2022-11-06T01:06:19;52.33;;;30.57;;
7306;SDS011;3694;48.732;9.248;2022-11-06T01:08:45;47.63;;;28.90;;
7306;SDS011;3694;48.732;9.248;2022-11-06T01:11:16;51.70;;;31.40;;
7306;SDS011;3694;48.732;9.248;2022-11-06T01:13:44;57.40;;;31.60;;
7306;SDS011;3694;48.732;9.248;2022-11-06T01:16:11;49.33;;;30.57;;
7306;SDS011;3694;48.732;9.248;2022-11-06T01:18:39;44.97;;;29.80;;
7306;SDS011;3694;48.732;9.248;2022-11-06T01:21:07;46.63;;;30.30;;
7306;SDS011;3694;48.732;9.248;2022-11-06T01:23:37;49.10;;;29.80;;
7306;SDS011;3694;48.732;9.248;2022-11-06T01:26:03;51.47;;;29.37;;
7306;SDS011;3694;48.732;9.248;2022-11-06T01:28:31;46.40;;;29.53;;
7306;SDS011;3694;48.732;9.248;2022-11-06T01:31:01;50.33;;;30.00;;
7306;SDS011;3694;48.732;9.248;2022-11-06T01:33:43;45.63;;;28.23;;
7306;SDS011;3694;48.732;9.248;2022-11-06T01:36:10;52.07;;;31.13;;
7306;SDS011;3694;48.732;9.248;2022-11-06T01:38:40;49.43;;;31.50;;
7306;SDS011;3694;48.732;9.248;2022-11-06T01:41:06;49.50;;;30.20;;
7306;SDS011;3694;48.732;9.248;2022-11-06T01:43:43;46.57;;;29.10;;
7306;SDS011;3694;48.732;9.248;2022-11-06T01:46:18;56.43;;;31.90;;
7306;SDS011;3694;48.732;9.248;2022-11-06T01:48:46;56.40;;;32.67;;
7306;SDS011;3694;48.732;9.248;2022-11-06T01:51:33;53.07;;;30.70;;
7306;SDS011;3694;48.732;9.248;2022-11-06T01:54:03;49.80;;;31.67;;
7306;SDS011;3694;48.732;9.248;2022-11-06T01:56:30;53.87;;;32.93;;
7306;SDS011;3694;48.732;9.248;2022-11-06T01:58:56;58.30;;;33.20;;
7306;SDS011;3694;48.732;9.248;2022-11-06T02:01:22;49.90;;;31.37;;
7306;SDS011;3694;48.732;9.248;2022-11-06T02:03:49;52.77;;;32.90;;
7306;SDS011;3694;48.732;9.248;2022-11-06T02:06:20;52.43;;;32.60;;
7306;SDS011;3694;48.732;9.248;2022-11-06T02:08:46;60.00;;;34.93;;
7306;SDS011;3694;48.732;9.248;2022-11-06T02:11:12;55.07;;;34.30;;
7306;SDS011;3694;48.732;9.248;2022-11-06T02:16:45;52.37;;;33.90;;
7306;SDS011;3694;48.732;9.248;2022-11-06T02:27:23;55.33;;;36.63;;
7306;SDS011;3694;48.732;9.248;2022-11-06T02:29:57;60.63;;;38.33;;
7306;SDS011;3694;48.732;9.248;2022-11-06T02:38:06;59.83;;;35.43;;
7306;SDS011;3694;48.732;9.248;2022-11-06T02:40:36;54.40;;;35.03;;
7306;SDS011;3694;48.732;9.248;2022-11-06T02:43:08;52.17;;;32.73;;
7306;SDS011;3694;48.732;9.248;2022-11-06T02:45:43;53.27;;;34.20;;
7306;SDS011;3694;48.732;9.248;2022-11-06T02:48:12;56.77;;;36.07;;
7306;SDS011;3694;48.732;9.248;2022-11-06T02:50:42;64.17;;;37.47;;
7306;SDS011;3694;48.732;9.248;2022-11-06T02:53:10;60.33;;;36.70;;
7306;SDS011;3694;48.732;9.248;2022-11-06T02:55:42;61.13;;;35.87;;
7306;SDS011;3694;48.732;9.248;2022-11-06T02:58:18;58.17;;;35.43;;
7306;SDS011;3694;48.732;9.248;2022-11-06T03:00:49;55.07;;;35.20;;
7306;SDS011;3694;48.732;9.248;2022-11-06T03:03:38;60.23;;;37.20;;
7306;SDS011;3694;48.732;9.248;2022-11-06T03:06:09;58.97;;;37.57;;
7306;SDS011;3694;48.732;9.248;2022-11-06T03:08:40;53.90;;;34.50;;
7306;SDS011;3694;48.732;9.248;2022-11-06T03:11:20;81.70;;;34.43;;
7306;SDS011;3694;48.732;9.248;2022-11-06T03:16:59;91.10;;;33.43;;
7306;SDS011;3694;48.732;9.248;2022-11-06T03:22:10;454.63;;;49.87;;
7306;SDS011;3694;48.732;9.248;2022-11-06T03:27:10;590.50;;;54.40;;
7306;SDS011;3694;48.732;9.248;2022-11-06T03:29:44;308.53;;;44.20;;
7306;SDS011;3694;48.732;9.248;2022-11-06T03:32:31;227.40;;;40.03;;
7306;SDS011;3694;48.732;9.248;2022-11-06T03:37:38;196.77;;;39.90;;
7306;SDS011;3694;48.732;9.248;2022-11-06T03:40:07;266.37;;;38.57;;
7306;SDS011;3694;48.732;9.248;2022-11-06T03:42:35;176.13;;;33.40;;
7306;SDS011;3694;48.732;9.248;2022-11-06T03:45:15;225.07;;;36.90;;
7306;SDS011;3694;48.732;9.248;2022-11-06T03:47:45;158.57;;;35.30;;
7306;SDS011;3694;48.732;9.248;2022-11-06T03:50:19;254.17;;;38.30;;
7306;SDS011;3694;48.732;9.248;2022-11-06T03:53:03;129.90;;;31.33;;
7306;SDS011;3694;48.732;9.248;2022-11-06T03:55:38;220.80;;;34.83;;
7306;SDS011;3694;48.732;9.248;2022-11-06T03:58:51;251.23;;;38.33;;
7306;SDS011;3694;48.732;9.248;2022-11-06T04:01:02;247.33;;;33.57;;
7306;SDS011;3694;48.732;9.248;2022-11-06T04:03:32;313.30;;;41.53;;
7306;SDS011;3694;48.732;9.248;2022-11-06T04:06:14;328.97;;;41.23;;
7306;SDS011;3694;48.732;9.248;2022-11-06T04:08:50;179.80;;;33.40;;
7306;SDS011;3694;48.732;9.248;2022-11-06T04:11:37;355.50;;;39.63;;
7306;SDS011;3694;48.732;9.248;2022-11-06T04:14:24;354.03;;;41.07;;
7306;SDS011;3694;48.732;9.248;2022-11-06T04:16:53;363.90;;;40.47;;
7306;SDS011;3694;48.732;9.248;2022-11-06T04:19:23;411.10;;;43.07;;
7306;SDS011;3694;48.732;9.248;2022-11-06T04:21:59;302.23;;;38.47;;
7306;SDS011;3694;48.732;9.248;2022-11-06T04:25:05;373.20;;;42.40;;
7306;SDS011;3694;48.732;9.248;2022-11-06T04:28:07;264.20;;;36.40;;
7306;SDS011;3694;48.732;9.248;2022-11-06T04:34:02;403.70;;;45.53;;
7306;SDS011;3694;48.732;9.248;2022-11-06T04:36:49;525.07;;;44.13;;
7306;SDS011;3694;48.732;9.248;2022-11-06T04:39:29;654.67;;;50.93;;
7306;SDS011;3694;48.732;9.248;2022-11-06T04:45:06;415.87;;;41.50;;
7306;SDS011;3694;48.732;9.248;2022-11-06T04:47:36;344.40;;;37.67;;
7306;SDS011;3694;48.732;9.248;2022-11-06T04:50:03;305.70;;;36.40;;
7306;SDS011;3694;48.732;9.248;2022-11-06T04:52:31;182.77;;;31.27;;
7306;SDS011;3694;48.732;9.248;2022-11-06T04:54:58;267.13;;;35.57;;
7306;SDS011;3694;48.732;9.248;2022-11-06T04:57:24;130.57;;;27.50;;
7306;SDS011;3694;48.732;9.248;2022-11-06T04:59:50;108.97;;;25.87;;
7306;SDS011;3694;48.732;9.248;2022-11-06T05:02:16;166.53;;;32.03;;
7306;SDS011;3694;48.732;9.248;2022-11-06T05:04:42;156.13;;;29.20;;
7306;SDS011;3694;48.732;9.248;2022-11-06T05:07:08;126.13;;;28.20;;
7306;SDS011;3694;48.732;9.248;2022-11-06T05:09:37;96.27;;;24.87;;
7306;SDS011;3694;48.732;9.248;2022-11-06T05:12:02;42.20;;;21.17;;
7306;SDS011;3694;48.732;9.248;2022-11-06T05:14:28;41.73;;;21.10;;
7306;SDS011;3694;48.732;9.248;2022-11-06T05:16:54;26.60;;;17.73;;
7306;SDS011;3694;48.732;9.248;2022-11-06T05:19:19;29.07;;;18.70;;
7306;SDS011;3694;48.732;9.248;2022-11-06T05:21:45;29.60;;;19.33;;
7306;SDS011;3694;48.732;9.248;2022-11-06T05:24:29;29.83;;;20.33;;
7306;SDS011;3694;48.732;9.248;2022-11-06T05:26:54;28.50;;;19.43;;
7306;SDS011;3694;48.732;9.248;2022-11-06T05:29:20;27.50;;;19.13;;
7306;SDS011;3694;48.732;9.248;2022-11-06T05:31:45;32.47;;;19.97;;
7306;SDS011;3694;48.732;9.248;2022-11-06T05:34:11;27.40;;;19.73;;
7306;SDS011;3694;48.732;9.248;2022-11-06T05:36:37;26.40;;;19.67;;
7306;SDS011;3694;48.732;9.248;2022-11-06T05:39:03;23.80;;;18.73;;
7306;SDS011;3694;48.732;9.248;2022-11-06T05:41:29;26.57;;;20.23;;
7306;SDS011;3694;48.732;9.248;2022-11-06T05:43:54;34.63;;;21.97;;
7306;SDS011;3694;48.732;9.248;2022-11-06T05:46:20;40.20;;;23.37;;
7306;SDS011;3694;48.732;9.248;2022-11-06T05:48:45;38.47;;;23.40;;
7306;SDS011;3694;48.732;9.248;2022-11-06T05:51:11;44.17;;;25.70;;
7306;SDS011;3694;48.732;9.248;2022-11-06T05:53:36;43.97;;;25.20;;
7306;SDS011;3694;48.732;9.248;2022-11-06T05:56:02;46.60;;;26.17;;
7306;SDS011;3694;48.732;9.248;2022-11-06T05:58:29;43.17;;;25.80;;
7306;SDS011;3694;48.732;9.248;2022-11-06T06:00:54;41.83;;;25.97;;
7306;SDS011;3694;48.732;9.248;2022-11-06T06:03:20;44.57;;;25.57;;
7306;SDS011;3694;48.732;9.248;2022-11-06T06:05:46;42.73;;;25.67;;
7306;SDS011;3694;48.732;9.248;2022-11-06T06:08:12;43.10;;;25.33;;
7306;SDS011;3694;48.732;9.248;2022-11-06T06:10:45;44.77;;;25.70;;
7306;SDS011;3694;48.732;9.248;2022-11-06T06:13:11;43.27;;;23.13;;
7306;SDS011;3694;48.732;9.248;2022-11-06T06:15:37;38.60;;;24.20;;
7306;SDS011;3694;48.732;9.248;2022-11-06T06:18:04;34.57;;;22.67;;
7306;SDS011;3694;48.732;9.248;2022-11-06T06:20:30;34.63;;;22.63;;
7306;SDS011;3694;48.732;9.248;2022-11-06T06:22:57;31.90;;;23.67;;
7306;SDS011;3694;48.732;9.248;2022-11-06T06:25:23;31.57;;;23.10;;
7306;SDS011;3694;48.732;9.248;2022-11-06T06:27:50;29.13;;;22.40;;
7306;SDS011;3694;48.732;9.248;2022-11-06T06:30:16;27.83;;;22.40;;
7306;SDS011;3694;48.732;9.248;2022-11-06T06:32:41;29.50;;;22.20;;
7306;SDS011;3694;48.732;9.248;2022-11-06T06:35:07;30.53;;;22.60;;
7306;SDS011;3694;48.732;9.248;2022-11-06T06:37:33;32.17;;;22.33;;
7306;SDS011;3694;48.732;9.248;2022-11-06T06:39:59;34.23;;;24.93;;
7306;SDS011;3694;48.732;9.248;2022-11-06T06:42:26;44.53;;;29.97;;
7306;SDS011;3694;48.732;9.248;2022-11-06T06:44:52;40.47;;;27.17;;
7306;SDS011;3694;48.732;9.248;2022-11-06T06:47:18;36.27;;;26.27;;
7306;SDS011;3694;48.732;9.248;2022-11-06T06:49:43;44.83;;;29.90;;
7306;SDS011;3694;48.732;9.248;2022-11-06T06:52:10;43.50;;;29.60;;
7306;SDS011;3694;48.732;9.248;2022-11-06T06:54:36;44.77;;;27.17;;
7306;SDS011;3694;48.732;9.248;2022-11-06T06:57:02;31.17;;;23.40;;
7306;SDS011;3694;48.732;9.248;2022-11-06T06:59:28;28.40;;;21.93;;
7306;SDS011;3694;48.732;9.248;2022-11-06T07:01:54;31.77;;;22.47;;
7306;SDS011;3694;48.732;9.248;2022-11-06T07:04:21;32.20;;;20.57;;
7306;SDS011;3694;48.732;9.248;2022-11-06T07:06:47;34.30;;;22.17;;
7306;SDS011;3694;48.732;9.248;2022-11-06T07:09:13;78.23;;;26.73;;
7306;SDS011;3694;48.732;9.248;2022-11-06T07:11:38;133.10;;;28.30;;
7306;SDS011;3694;48.732;9.248;2022-11-06T07:14:04;142.43;;;29.03;;
7306;SDS011;3694;48.732;9.248;2022-11-06T07:16:29;234.10;;;31.70;;
7306;SDS011;3694;48.732;9.248;2022-11-06T07:18:56;245.43;;;31.70;;
7306;SDS011;3694;48.732;9.248;2022-11-06T07:21:22;133.17;;;29.03;;
7306;SDS011;3694;48.732;9.248;2022-11-06T07:23:48;164.17;;;29.93;;
7306;SDS011;3694;48.732;9.248;2022-11-06T07:26:14;92.07;;;22.60;;
7306;SDS011;3694;48.732;9.248;2022-11-06T07:28:40;192.53;;;30.87;;
7306;SDS011;3694;48.732;9.248;2022-11-06T07:31:06;204.77;;;31.03;;
7306;SDS011;3694;48.732;9.248;2022-11-06T07:33:32;399.00;;;40.00;;
7306;SDS011;3694;48.732;9.248;2022-11-06T07:36:16;308.07;;;35.10;;
7306;SDS011;3694;48.732;9.248;2022-11-06T07:38:42;428.27;;;38.33;;
7306;SDS011;3694;48.732;9.248;2022-11-06T07:41:11;338.33;;;32.73;;
7306;SDS011;3694;48.732;9.248;2022-11-06T07:43:38;283.37;;;36.57;;
7306;SDS011;3694;48.732;9.248;2022-11-06T07:46:05;337.83;;;36.07;;
7306;SDS011;3694;48.732;9.248;2022-11-06T07:48:33;430.10;;;44.77;;
7306;SDS011;3694;48.732;9.248;2022-11-06T07:51:06;318.27;;;38.03;;
7306;SDS011;3694;48.732;9.248;2022-11-06T07:53:33;763.70;;;69.00;;
7306;SDS011;3694;48.732;9.248;2022-11-06T07:55:59;937.87;;;74.10;;
7306;SDS011;3694;48.732;9.248;2022-11-06T07:58:24;926.50;;;72.40;;
7306;SDS011;3694;48.732;9.248;2022-11-06T08:00:51;1221.27;;;100.77;;
7306;SDS011;3694;48.732;9.248;2022-11-06T08:03:18;556.77;;;46.07;;
7306;SDS011;3694;48.732;9.248;2022-11-06T08:05:44;844.43;;;68.67;;
7306;SDS011;3694;48.732;9.248;2022-11-06T08:08:10;1009.17;;;83.30;;
7306;SDS011;3694;48.732;9.248;2022-11-06T08:10:36;747.50;;;60.47;;
7306;SDS011;3694;48.732;9.248;2022-11-06T08:13:04;689.00;;;50.40;;
7306;SDS011;3694;48.732;9.248;2022-11-06T08:15:31;607.10;;;49.07;;
7306;SDS011;3694;48.732;9.248;2022-11-06T08:17:57;512.90;;;43.73;;
7306;SDS011;3694;48.732;9.248;2022-11-06T08:20:23;228.83;;;30.47;;
7306;SDS011;3694;48.732;9.248;2022-11-06T08:22:49;236.07;;;28.13;;
7306;SDS011;3694;48.732;9.248;2022-11-06T08:25:16;263.43;;;28.90;;
7306;SDS011;3694;48.732;9.248;2022-11-06T08:27:42;278.90;;;31.70;;
7306;SDS011;3694;48.732;9.248;2022-11-06T08:30:07;409.30;;;38.10;;
7306;SDS011;3694;48.732;9.248;2022-11-06T08:32:34;286.43;;;34.20;;
7306;SDS011;3694;48.732;9.248;2022-11-06T08:34:59;257.50;;;30.53;;
7306;SDS011;3694;48.732;9.248;2022-11-06T08:37:25;211.97;;;30.53;;
7306;SDS011;3694;48.732;9.248;2022-11-06T08:39:50;237.70;;;32.13;;
7306;SDS011;3694;48.732;9.248;2022-11-06T08:42:16;234.83;;;28.50;;
7306;SDS011;3694;48.732;9.248;2022-11-06T08:44:42;131.53;;;24.27;;
7306;SDS011;3694;48.732;9.248;2022-11-06T08:47:07;94.40;;;21.13;;
7306;SDS011;3694;48.732;9.248;2022-11-06T08:49:33;49.40;;;18.43;;
7306;SDS011;3694;48.732;9.248;2022-11-06T08:51:59;90.07;;;18.93;;
7306;SDS011;3694;48.732;9.248;2022-11-06T08:54:24;58.47;;;18.03;;
7306;SDS011;3694;48.732;9.248;2022-11-06T08:56:50;57.73;;;19.40;;
7306;SDS011;3694;48.732;9.248;2022-11-06T08:59:16;38.17;;;18.47;;
7306;SDS011;3694;48.732;9.248;2022-11-06T09:01:41;31.23;;;18.53;;
7306;SDS011;3694;48.732;9.248;2022-11-06T09:04:07;40.00;;;20.63;;
7306;SDS011;3694;48.732;9.248;2022-11-06T09:06:32;30.77;;;19.83;;
7306;SDS011;3694;48.732;9.248;2022-11-06T09:08:58;32.33;;;20.53;;
7306;SDS011;3694;48.732;9.248;2022-11-06T09:11:24;29.63;;;18.77;;
7306;SDS011;3694;48.732;9.248;2022-11-06T09:13:49;33.00;;;20.20;;
7306;SDS011;3694;48.732;9.248;2022-11-06T09:16:15;29.23;;;19.20;;
7306;SDS011;3694;48.732;9.248;2022-11-06T09:18:41;30.17;;;19.23;;
7306;SDS011;3694;48.732;9.248;2022-11-06T09:21:06;33.70;;;20.67;;
7306;SDS011;3694;48.732;9.248;2022-11-06T09:23:32;34.03;;;21.43;;
7306;SDS011;3694;48.732;9.248;2022-11-06T09:25:58;33.33;;;21.13;;
7306;SDS011;3694;48.732;9.248;2022-11-06T09:28:24;35.10;;;22.93;;
7306;SDS011;3694;48.732;9.248;2022-11-06T09:30:49;35.27;;;23.00;;
7306;SDS011;3694;48.732;9.248;2022-11-06T09:33:15;33.13;;;21.10;;
7306;SDS011;3694;48.732;9.248;2022-11-06T09:35:41;30.57;;;20.97;;
7306;SDS011;3694;48.732;9.248;2022-11-06T09:38:09;30.93;;;19.67;;
7306;SDS011;3694;48.732;9.248;2022-11-06T09:40:46;26.13;;;18.13;;
7306;SDS011;3694;48.732;9.248;2022-11-06T09:45:59;31.50;;;20.93;;
7306;SDS011;3694;48.732;9.248;2022-11-06T09:48:57;30.43;;;21.23;;
7306;SDS011;3694;48.732;9.248;2022-11-06T09:51:51;33.57;;;22.07;;
7306;SDS011;3694;48.732;9.248;2022-11-06T09:54:22;33.80;;;23.40;;
7306;SDS011;3694;48.732;9.248;2022-11-06T09:56:54;32.63;;;22.50;;
7306;SDS011;3694;48.732;9.248;2022-11-06T09:59:26;24.10;;;17.00;;
7306;SDS011;3694;48.732;9.248;2022-11-06T10:01:55;22.20;;;17.50;;
7306;SDS011;3694;48.732;9.248;2022-11-06T10:06:53;20.70;;;16.40;;
7306;SDS011;3694;48.732;9.248;2022-11-06T10:09:19;22.97;;;16.97;;
7306;SDS011;3694;48.732;9.248;2022-11-06T10:12:02;18.30;;;15.10;;
7306;SDS011;3694;48.732;9.248;2022-11-06T10:17:25;15.47;;;12.87;;
7306;SDS011;3694;48.732;9.248;2022-11-06T10:19:58;16.07;;;13.23;;
7306;SDS011;3694;48.732;9.248;2022-11-06T10:22:45;14.70;;;12.63;;
7306;SDS011;3694;48.732;9.248;2022-11-06T10:25:51;12.00;;;10.70;;
7306;SDS011;3694;48.732;9.248;2022-11-06T10:28:33;15.60;;;12.50;;
7306;SDS011;3694;48.732;9.248;2022-11-06T10:31:23;13.50;;;11.10;;
7306;SDS011;3694;48.732;9.248;2022-11-06T10:34:00;14.40;;;12.03;;
7306;SDS011;3694;48.732;9.248;2022-11-06T10:36:48;12.50;;;11.20;;
7306;SDS011;3694;48.732;9.248;2022-11-06T10:39:24;12.87;;;11.23;;
7306;SDS011;3694;48.732;9.248;2022-11-06T10:42:04;13.90;;;11.37;;
7306;SDS011;3694;48.732;9.248;2022-11-06T10:44:40;11.90;;;10.63;;
7306;SDS011;3694;48.732;9.248;2022-11-06T10:47:31;10.97;;;9.67;;
7306;SDS011;3694;48.732;9.248;2022-11-06T10:50:00;10.47;;;9.37;;
7306;SDS011;3694;48.732;9.248;2022-11-06T10:58:25;9.33;;;8.40;;
7306;SDS011;3694;48.732;9.248;2022-11-06T11:00:55;11.30;;;10.10;;
7306;SDS011;3694;48.732;9.248;2022-11-06T11:05:55;9.13;;;8.20;;
7306;SDS011;3694;48.732;9.248;2022-11-06T11:08:31;7.90;;;7.10;;
7306;SDS011;3694;48.732;9.248;2022-11-06T11:11:00;8.57;;;7.77;;
7306;SDS011;3694;48.732;9.248;2022-11-06T11:13:28;8.03;;;7.23;;
7306;SDS011;3694;48.732;9.248;2022-11-06T11:15:54;8.33;;;7.40;;
7306;SDS011;3694;48.732;9.248;2022-11-06T11:18:26;8.17;;;7.37;;
7306;SDS011;3694;48.732;9.248;2022-11-06T11:21:18;8.87;;;8.00;;
7306;SDS011;3694;48.732;9.248;2022-11-06T11:26:30;9.80;;;8.83;;
7306;SDS011;3694;48.732;9.248;2022-11-06T11:28:58;8.53;;;7.73;;
7306;SDS011;3694;48.732;9.248;2022-11-06T11:31:36;8.00;;;7.20;;
7306;SDS011;3694;48.732;9.248;2022-11-06T11:34:03;7.73;;;6.87;;
7306;SDS011;3694;48.732;9.248;2022-11-06T11:39:21;6.63;;;6.10;;
7306;SDS011;3694;48.732;9.248;2022-11-06T11:41:49;6.57;;;5.87;;
7306;SDS011;3694;48.732;9.248;2022-11-06T11:44:16;6.43;;;5.20;;
7306;SDS011;3694;48.732;9.248;2022-11-06T11:46:50;7.27;;;6.30;;
7306;SDS011;3694;48.732;9.248;2022-11-06T11:49:30;6.33;;;5.73;;
7306;SDS011;3694;48.732;9.248;2022-11-06T11:51:58;6.90;;;6.20;;
7306;SDS011;3694;48.732;9.248;2022-11-06T11:54:27;7.13;;;6.43;;
7306;SDS011;3694;48.732;9.248;2022-11-06T11:56:59;7.53;;;6.83;;
7306;SDS011;3694;48.732;9.248;2022-11-06T12:02:15;7.67;;;6.90;;
7306;SDS011;3694;48.732;9.248;2022-11-06T12:05:20;6.17;;;5.67;;
7306;SDS011;3694;48.732;9.248;2022-11-06T12:07:51;6.50;;;5.90;;
7306;SDS011;3694;48.732;9.248;2022-11-06T12:12:56;6.63;;;6.03;;
7306;SDS011;3694;48.732;9.248;2022-11-06T12:15:33;5.87;;;5.37;;
7306;SDS011;3694;48.732;9.248;2022-11-06T12:18:08;6.67;;;5.97;;
7306;SDS011;3694;48.732;9.248;2022-11-06T12:21:00;6.43;;;5.83;;
7306;SDS011;3694;48.732;9.248;2022-11-06T12:23:33;6.30;;;5.70;;
7306;SDS011;3694;48.732;9.248;2022-11-06T12:28:34;6.30;;;5.77;;
7306;SDS011;3694;48.732;9.248;2022-11-06T12:31:03;8.40;;;5.60;;
7306;SDS011;3694;48.732;9.248;2022-11-06T12:33:37;6.43;;;5.83;;
7306;SDS011;3694;48.732;9.248;2022-11-06T12:36:06;6.37;;;5.67;;
7306;SDS011;3694;48.732;9.248;2022-11-06T12:43:56;5.40;;;4.90;;
7306;SDS011;3694;48.732;9.248;2022-11-06T13:00:35;4.53;;;4.13;;
7306;SDS011;3694;48.732;9.248;2022-11-06T13:03:14;6.47;;;4.80;;
7306;SDS011;3694;48.732;9.248;2022-11-06T13:08:58;5.33;;;4.90;;
7306;SDS011;3694;48.732;9.248;2022-11-06T13:11:32;5.00;;;4.60;;
7306;SDS011;3694;48.732;9.248;2022-11-06T13:14:12;4.40;;;4.00;;
7306;SDS011;3694;48.732;9.248;2022-11-06T13:17:05;4.73;;;4.03;;
7306;SDS011;3694;48.732;9.248;2022-11-06T13:19:59;4.00;;;3.70;;
7306;SDS011;3694;48.732;9.248;2022-11-06T13:22:53;4.80;;;4.40;;
7306;SDS011;3694;48.732;9.248;2022-11-06T13:25:25;4.67;;;4.27;;
7306;SDS011;3694;48.732;9.248;2022-11-06T13:28:18;4.40;;;4.00;;
7306;SDS011;3694;48.732;9.248;2022-11-06T13:30:48;4.50;;;4.10;;
7306;SDS011;3694;48.732;9.248;2022-11-06T13:33:19;4.40;;;4.00;;
7306;SDS011;3694;48.732;9.248;2022-11-06T13:35:53;4.50;;;4.10;;
7306;SDS011;3694;48.732;9.248;2022-11-06T13:38:24;4.60;;;4.20;;
7306;SDS011;3694;48.732;9.248;2022-11-06T13:40:55;4.77;;;4.37;;
7306;SDS011;3694;48.732;9.248;2022-11-06T13:43:25;5.23;;;4.40;;
7306;SDS011;3694;48.732;9.248;2022-11-06T13:46:15;4.97;;;4.30;;
7306;SDS011;3694;48.732;9.248;2022-11-06T13:51:19;4.80;;;4.30;;
7306;SDS011;3694;48.732;9.248;2022-11-06T14:08:20;4.63;;;4.23;;
7306;SDS011;3694;48.732;9.248;2022-11-06T14:11:05;4.17;;;3.83;;
7306;SDS011;3694;48.732;9.248;2022-11-06T14:13:39;4.07;;;3.77;;
7306;SDS011;3694;48.732;9.248;2022-11-06T14:18:53;4.80;;;4.40;;
7306;SDS011;3694;48.732;9.248;2022-11-06T14:26:54;4.57;;;4.17;;
7306;SDS011;3694;48.732;9.248;2022-11-06T14:32:11;4.97;;;4.47;;
7306;SDS011;3694;48.732;9.248;2022-11-06T14:40:58;4.03;;;2.90;;
7306;SDS011;3694;48.732;9.248;2022-11-06T14:43:25;3.70;;;3.40;;
7306;SDS011;3694;48.732;9.248;2022-11-06T14:48:44;6.00;;;5.37;;
7306;SDS011;3694;48.732;9.248;2022-11-06T14:51:12;6.40;;;5.00;;
7306;SDS011;3694;48.732;9.248;2022-11-06T14:53:49;5.23;;;4.60;;
7306;SDS011;3694;48.732;9.248;2022-11-06T14:56:24;6.20;;;5.60;;
7306;SDS011;3694;48.732;9.248;2022-11-06T14:58:53;6.00;;;5.40;;
7306;SDS011;3694;48.732;9.248;2022-11-06T15:01:25;5.63;;;5.13;;
7306;SDS011;3694;48.732;9.248;2022-11-06T15:04:01;5.73;;;5.23;;
7306;SDS011;3694;48.732;9.248;2022-11-06T15:09:14;6.43;;;5.73;;
7306;SDS011;3694;48.732;9.248;2022-11-06T15:12:03;6.83;;;6.13;;
7306;SDS011;3694;48.732;9.248;2022-11-06T15:17:02;6.27;;;5.77;;
7306;SDS011;3694;48.732;9.248;2022-11-06T15:19:44;6.23;;;5.63;;
7306;SDS011;3694;48.732;9.248;2022-11-06T15:25:05;5.43;;;4.93;;
7306;SDS011;3694;48.732;9.248;2022-11-06T15:27:42;5.60;;;5.10;;
7306;SDS011;3694;48.732;9.248;2022-11-06T15:30:12;5.07;;;4.63;;
7306;SDS011;3694;48.732;9.248;2022-11-06T15:32:41;5.47;;;4.97;;
7306;SDS011;3694;48.732;9.248;2022-11-06T15:35:13;7.50;;;5.37;;
7306;SDS011;3694;48.732;9.248;2022-11-06T15:38:02;5.43;;;4.93;;
7306;SDS011;3694;48.732;9.248;2022-11-06T15:40:34;5.87;;;5.20;;
7306;SDS011;3694;48.732;9.248;2022-11-06T15:43:06;6.27;;;5.77;;
7306;SDS011;3694;48.732;9.248;2022-11-06T15:45:38;5.50;;;5.00;;
7306;SDS011;3694;48.732;9.248;2022-11-06T15:48:04;5.37;;;4.87;;
7306;SDS011;3694;48.732;9.248;2022-11-06T15:50:41;5.50;;;5.00;;
7306;SDS011;3694;48.732;9.248;2022-11-06T15:55:43;6.10;;;5.50;;
7306;SDS011;3694;48.732;9.248;2022-11-06T16:00:44;6.50;;;5.90;;
7306;SDS011;3694;48.732;9.248;2022-11-06T16:03:12;6.57;;;5.83;;
7306;SDS011;3694;48.732;9.248;2022-11-06T16:05:42;6.87;;;6.20;;
7306;SDS011;3694;48.732;9.248;2022-11-06T16:08:12;7.60;;;6.90;;
7306;SDS011;3694;48.732;9.248;2022-11-06T16:10:38;8.67;;;7.73;;
7306;SDS011;3694;48.732;9.248;2022-11-06T16:13:08;9.00;;;7.17;;
7306;SDS011;3694;48.732;9.248;2022-11-06T16:20:51;7.20;;;6.53;;
7306;SDS011;3694;48.732;9.248;2022-11-06T16:23:18;6.90;;;6.20;;
7306;SDS011;3694;48.732;9.248;2022-11-06T16:25:47;7.40;;;6.70;;
7306;SDS011;3694;48.732;9.248;2022-11-06T16:28:17;7.43;;;6.63;;
7306;SDS011;3694;48.732;9.248;2022-11-06T16:30:47;8.23;;;6.97;;
7306;SDS011;3694;48.732;9.248;2022-11-06T16:33:22;8.40;;;7.53;;
7306;SDS011;3694;48.732;9.248;2022-11-06T16:35:49;8.63;;;7.83;;
7306;SDS011;3694;48.732;9.248;2022-11-06T16:40:50;8.57;;;7.60;;
7306;SDS011;3694;48.732;9.248;2022-11-06T16:43:18;8.70;;;7.80;;
7306;SDS011;3694;48.732;9.248;2022-11-06T16:46:01;7.90;;;7.20;;
7306;SDS011;3694;48.732;9.248;2022-11-06T16:48:33;7.83;;;7.10;;
7306;SDS011;3694;48.732;9.248;2022-11-06T16:51:03;7.70;;;7.00;;
7306;SDS011;3694;48.732;9.248;2022-11-06T16:53:29;8.00;;;7.30;;
7306;SDS011;3694;48.732;9.248;2022-11-06T16:56:01;8.03;;;7.30;;
7306;SDS011;3694;48.732;9.248;2022-11-06T16:58:30;7.97;;;7.17;;
7306;SDS011;3694;48.732;9.248;2022-11-06T17:01:12;9.27;;;8.27;;
7306;SDS011;3694;48.732;9.248;2022-11-06T17:03:44;9.73;;;8.73;;
7306;SDS011;3694;48.732;9.248;2022-11-06T17:06:20;9.33;;;8.33;;
7306;SDS011;3694;48.732;9.248;2022-11-06T17:08:58;9.73;;;8.13;;
7306;SDS011;3694;48.732;9.248;2022-11-06T17:11:29;9.00;;;8.10;;
7306;SDS011;3694;48.732;9.248;2022-11-06T17:13:55;8.43;;;7.63;;
7306;SDS011;3694;48.732;9.248;2022-11-06T17:16:22;6.87;;;6.27;;
7306;SDS011;3694;48.732;9.248;2022-11-06T17:18:49;7.50;;;6.70;;
7306;SDS011;3694;48.732;9.248;2022-11-06T17:21:16;9.70;;;8.47;;
7306;SDS011;3694;48.732;9.248;2022-11-06T17:23:44;7.77;;;6.97;;
7306;SDS011;3694;48.732;9.248;2022-11-06T17:26:21;9.20;;;7.83;;
7306;SDS011;3694;48.732;9.248;2022-11-06T17:28:56;9.53;;;7.80;;
7306;SDS011;3694;48.732;9.248;2022-11-06T17:31:23;7.60;;;6.90;;
7306;SDS011;3694;48.732;9.248;2022-11-06T17:33:50;7.47;;;6.77;;
7306;SDS011;3694;48.732;9.248;2022-11-06T17:36:21;6.60;;;6.00;;
7306;SDS011;3694;48.732;9.248;2022-11-06T17:38:52;8.03;;;7.07;;
7306;SDS011;3694;48.732;9.248;2022-11-06T17:41:18;8.63;;;7.60;;
7306;SDS011;3694;48.732;9.248;2022-11-06T17:44:04;8.40;;;7.60;;